sensor_id;sensor_type;location;lat;lon;timestamp;P1;durP1;ratioP1;P2;durP2;ratioP2
2860;SDS011;1438;50.922;6.704;2023-07-31T00:00:32;7.40;;;4.40;;
2860;SDS011;1438;50.922;6.704;2023-07-31T00:02:58;8.60;;;4.77;;
2860;SDS011;1438;50.922;6.704;2023-07-31T00:05:24;7.87;;;4.40;;
2860;SDS011;1438;50.922;6.704;2023-07-31T00:07:50;7.07;;;4.50;;
2860;SDS011;1438;50.922;6.704;2023-07-31T00:10:15;7.17;;;4.03;;
2860;SDS011;1438;50.922;6.704;2023-07-31T00:12:42;6.13;;;4.10;;
2860;SDS011;1438;50.922;6.704;2023-07-31T00:15:08;9.33;;;4.93;;
2860;SDS011;1438;50.922;6.704;2023-07-31T00:17:34;6.97;;;3.53;;
2860;SDS011;1438;50.922;6.704;2023-07-31T00:20:01;7.93;;;4.20;;
2860;SDS011;1438;50.922;6.704;2023-07-31T00:22:27;6.00;;;3.93;;
2860;SDS011;1438;50.922;6.704;2023-07-31T00:24:52;8.90;;;3.57;;
2860;SDS011;1438;50.922;6.704;2023-07-31T00:27:18;9.93;;;4.17;;
2860;SDS011;1438;50.922;6.704;2023-07-31T00:29:46;13.57;;;3.63;;
2860;SDS011;1438;50.922;6.704;2023-07-31T00:32:13;11.30;;;5.30;;
2860;SDS011;1438;50.922;6.704;2023-07-31T00:34:39;7.00;;;5.00;;
2860;SDS011;1438;50.922;6.704;2023-07-31T00:37:05;5.40;;;3.90;;
2860;SDS011;1438;50.922;6.704;2023-07-31T00:39:33;8.03;;;3.67;;
2860;SDS011;1438;50.922;6.704;2023-07-31T00:41:59;10.37;;;4.57;;
2860;SDS011;1438;50.922;6.704;2023-07-31T00:44:25;6.30;;;3.53;;
2860;SDS011;1438;50.922;6.704;2023-07-31T00:46:51;6.83;;;3.70;;
2860;SDS011;1438;50.922;6.704;2023-07-31T00:49:17;7.43;;;3.67;;
2860;SDS011;1438;50.922;6.704;2023-07-31T00:51:43;9.77;;;3.50;;
2860;SDS011;1438;50.922;6.704;2023-07-31T00:54:08;12.50;;;3.73;;
2860;SDS011;1438;50.922;6.704;2023-07-31T00:56:35;6.97;;;3.33;;
2860;SDS011;1438;50.922;6.704;2023-07-31T00:59:02;8.67;;;3.23;;
2860;SDS011;1438;50.922;6.704;2023-07-31T01:01:27;6.40;;;3.50;;
2860;SDS011;1438;50.922;6.704;2023-07-31T01:03:53;5.23;;;2.63;;
2860;SDS011;1438;50.922;6.704;2023-07-31T01:06:31;5.63;;;3.00;;
2860;SDS011;1438;50.922;6.704;2023-07-31T01:12:03;9.63;;;3.00;;
2860;SDS011;1438;50.922;6.704;2023-07-31T01:14:31;7.47;;;3.60;;
2860;SDS011;1438;50.922;6.704;2023-07-31T01:16:57;5.57;;;3.40;;
2860;SDS011;1438;50.922;6.704;2023-07-31T01:19:23;10.47;;;3.17;;
2860;SDS011;1438;50.922;6.704;2023-07-31T01:28:06;8.03;;;4.00;;
2860;SDS011;1438;50.922;6.704;2023-07-31T01:30:37;8.90;;;3.60;;
2860;SDS011;1438;50.922;6.704;2023-07-31T01:33:09;8.17;;;4.10;;
2860;SDS011;1438;50.922;6.704;2023-07-31T01:35:35;5.00;;;3.30;;
2860;SDS011;1438;50.922;6.704;2023-07-31T01:38:02;5.60;;;3.23;;
2860;SDS011;1438;50.922;6.704;2023-07-31T01:40:28;6.00;;;2.70;;
2860;SDS011;1438;50.922;6.704;2023-07-31T01:42:54;4.60;;;2.90;;
2860;SDS011;1438;50.922;6.704;2023-07-31T01:45:19;10.43;;;3.60;;
2860;SDS011;1438;50.922;6.704;2023-07-31T01:47:45;5.73;;;3.57;;
2860;SDS011;1438;50.922;6.704;2023-07-31T01:50:11;6.13;;;3.40;;
2860;SDS011;1438;50.922;6.704;2023-07-31T01:52:36;4.60;;;2.63;;
2860;SDS011;1438;50.922;6.704;2023-07-31T01:55:02;5.20;;;3.00;;
2860;SDS011;1438;50.922;6.704;2023-07-31T01:57:28;6.20;;;3.00;;
2860;SDS011;1438;50.922;6.704;2023-07-31T01:59:53;8.23;;;3.27;;
2860;SDS011;1438;50.922;6.704;2023-07-31T02:02:19;8.10;;;3.50;;
2860;SDS011;1438;50.922;6.704;2023-07-31T02:04:45;9.17;;;3.00;;
2860;SDS011;1438;50.922;6.704;2023-07-31T02:07:11;11.60;;;3.83;;
2860;SDS011;1438;50.922;6.704;2023-07-31T02:09:37;5.27;;;3.10;;
2860;SDS011;1438;50.922;6.704;2023-07-31T02:12:02;5.67;;;3.57;;
2860;SDS011;1438;50.922;6.704;2023-07-31T02:14:28;10.93;;;3.30;;
2860;SDS011;1438;50.922;6.704;2023-07-31T02:16:54;4.37;;;2.97;;
2860;SDS011;1438;50.922;6.704;2023-07-31T02:19:19;8.90;;;3.20;;
2860;SDS011;1438;50.922;6.704;2023-07-31T02:21:45;6.10;;;3.70;;
2860;SDS011;1438;50.922;6.704;2023-07-31T02:24:10;6.63;;;3.33;;
2860;SDS011;1438;50.922;6.704;2023-07-31T02:26:36;8.23;;;3.63;;
2860;SDS011;1438;50.922;6.704;2023-07-31T02:29:02;8.10;;;3.30;;
2860;SDS011;1438;50.922;6.704;2023-07-31T02:31:27;10.67;;;3.80;;
2860;SDS011;1438;50.922;6.704;2023-07-31T02:33:53;6.33;;;3.30;;
2860;SDS011;1438;50.922;6.704;2023-07-31T02:36:18;8.43;;;3.13;;
2860;SDS011;1438;50.922;6.704;2023-07-31T02:38:44;8.07;;;3.70;;
2860;SDS011;1438;50.922;6.704;2023-07-31T02:41:10;7.07;;;3.67;;
2860;SDS011;1438;50.922;6.704;2023-07-31T02:43:35;7.73;;;3.60;;
2860;SDS011;1438;50.922;6.704;2023-07-31T02:46:01;10.90;;;4.70;;
2860;SDS011;1438;50.922;6.704;2023-07-31T02:48:26;6.63;;;3.60;;
2860;SDS011;1438;50.922;6.704;2023-07-31T02:50:53;10.17;;;4.20;;
2860;SDS011;1438;50.922;6.704;2023-07-31T02:53:18;6.87;;;3.60;;
2860;SDS011;1438;50.922;6.704;2023-07-31T02:55:44;7.57;;;4.00;;
2860;SDS011;1438;50.922;6.704;2023-07-31T02:58:09;6.63;;;3.70;;
2860;SDS011;1438;50.922;6.704;2023-07-31T03:00:35;10.97;;;4.00;;
2860;SDS011;1438;50.922;6.704;2023-07-31T03:03:01;9.50;;;3.90;;
2860;SDS011;1438;50.922;6.704;2023-07-31T03:05:26;6.90;;;3.80;;
2860;SDS011;1438;50.922;6.704;2023-07-31T03:07:52;9.43;;;3.60;;
2860;SDS011;1438;50.922;6.704;2023-07-31T03:10:17;7.47;;;3.67;;
2860;SDS011;1438;50.922;6.704;2023-07-31T03:12:46;5.00;;;3.47;;
2860;SDS011;1438;50.922;6.704;2023-07-31T03:15:13;12.23;;;4.70;;
2860;SDS011;1438;50.922;6.704;2023-07-31T03:17:38;5.87;;;3.37;;
2860;SDS011;1438;50.922;6.704;2023-07-31T03:20:04;6.77;;;3.80;;
2860;SDS011;1438;50.922;6.704;2023-07-31T03:22:30;4.17;;;3.23;;
2860;SDS011;1438;50.922;6.704;2023-07-31T03:24:55;5.77;;;3.27;;
2860;SDS011;1438;50.922;6.704;2023-07-31T03:27:22;10.53;;;4.30;;
2860;SDS011;1438;50.922;6.704;2023-07-31T03:29:47;7.90;;;4.10;;
2860;SDS011;1438;50.922;6.704;2023-07-31T03:32:16;7.73;;;3.80;;
2860;SDS011;1438;50.922;6.704;2023-07-31T03:34:41;8.30;;;4.10;;
2860;SDS011;1438;50.922;6.704;2023-07-31T03:37:07;6.20;;;3.53;;
2860;SDS011;1438;50.922;6.704;2023-07-31T03:39:34;8.37;;;3.90;;
2860;SDS011;1438;50.922;6.704;2023-07-31T03:42:00;7.90;;;4.33;;
2860;SDS011;1438;50.922;6.704;2023-07-31T03:44:26;9.13;;;4.73;;
2860;SDS011;1438;50.922;6.704;2023-07-31T03:46:51;5.00;;;4.10;;
2860;SDS011;1438;50.922;6.704;2023-07-31T03:49:17;13.27;;;4.87;;
2860;SDS011;1438;50.922;6.704;2023-07-31T03:51:42;8.97;;;4.57;;
2860;SDS011;1438;50.922;6.704;2023-07-31T03:54:08;17.97;;;4.80;;
2860;SDS011;1438;50.922;6.704;2023-07-31T03:56:34;7.60;;;4.37;;
2860;SDS011;1438;50.922;6.704;2023-07-31T03:58:59;9.43;;;4.57;;
2860;SDS011;1438;50.922;6.704;2023-07-31T04:01:25;10.10;;;4.57;;
2860;SDS011;1438;50.922;6.704;2023-07-31T04:03:51;5.63;;;3.97;;
2860;SDS011;1438;50.922;6.704;2023-07-31T04:06:17;7.57;;;4.07;;
2860;SDS011;1438;50.922;6.704;2023-07-31T04:08:45;6.23;;;4.10;;
2860;SDS011;1438;50.922;6.704;2023-07-31T04:11:11;6.03;;;4.13;;
2860;SDS011;1438;50.922;6.704;2023-07-31T04:13:37;6.03;;;4.37;;
2860;SDS011;1438;50.922;6.704;2023-07-31T04:16:03;9.57;;;4.90;;
2860;SDS011;1438;50.922;6.704;2023-07-31T04:18:29;8.67;;;4.73;;
2860;SDS011;1438;50.922;6.704;2023-07-31T04:20:56;9.33;;;5.17;;
2860;SDS011;1438;50.922;6.704;2023-07-31T04:23:23;8.77;;;4.83;;
2860;SDS011;1438;50.922;6.704;2023-07-31T04:25:49;6.13;;;4.97;;
2860;SDS011;1438;50.922;6.704;2023-07-31T04:28:15;7.73;;;3.87;;
2860;SDS011;1438;50.922;6.704;2023-07-31T04:30:40;8.87;;;5.10;;
2860;SDS011;1438;50.922;6.704;2023-07-31T04:33:06;7.60;;;4.60;;
2860;SDS011;1438;50.922;6.704;2023-07-31T04:35:31;8.13;;;4.73;;
2860;SDS011;1438;50.922;6.704;2023-07-31T04:37:57;9.50;;;4.20;;
2860;SDS011;1438;50.922;6.704;2023-07-31T04:40:23;6.80;;;3.87;;
2860;SDS011;1438;50.922;6.704;2023-07-31T04:42:48;7.90;;;4.37;;
2860;SDS011;1438;50.922;6.704;2023-07-31T04:45:14;7.43;;;4.23;;
2860;SDS011;1438;50.922;6.704;2023-07-31T04:47:40;6.03;;;4.33;;
2860;SDS011;1438;50.922;6.704;2023-07-31T04:50:05;9.20;;;4.50;;
2860;SDS011;1438;50.922;6.704;2023-07-31T04:52:31;7.43;;;4.10;;
2860;SDS011;1438;50.922;6.704;2023-07-31T04:54:57;8.90;;;4.30;;
2860;SDS011;1438;50.922;6.704;2023-07-31T04:57:22;5.77;;;3.90;;
2860;SDS011;1438;50.922;6.704;2023-07-31T04:59:48;6.80;;;4.17;;
2860;SDS011;1438;50.922;6.704;2023-07-31T05:02:13;7.83;;;3.80;;
2860;SDS011;1438;50.922;6.704;2023-07-31T05:04:40;9.33;;;4.67;;
2860;SDS011;1438;50.922;6.704;2023-07-31T05:07:05;8.47;;;5.17;;
2860;SDS011;1438;50.922;6.704;2023-07-31T05:09:31;4.40;;;4.00;;
2860;SDS011;1438;50.922;6.704;2023-07-31T05:11:56;7.60;;;4.80;;
2860;SDS011;1438;50.922;6.704;2023-07-31T05:14:22;5.40;;;3.93;;
2860;SDS011;1438;50.922;6.704;2023-07-31T05:16:48;6.40;;;3.77;;
2860;SDS011;1438;50.922;6.704;2023-07-31T05:19:13;5.70;;;3.90;;
2860;SDS011;1438;50.922;6.704;2023-07-31T05:21:39;10.07;;;3.90;;
2860;SDS011;1438;50.922;6.704;2023-07-31T05:24:05;4.40;;;3.57;;
2860;SDS011;1438;50.922;6.704;2023-07-31T05:26:30;10.10;;;3.33;;
2860;SDS011;1438;50.922;6.704;2023-07-31T05:28:56;5.57;;;3.80;;
2860;SDS011;1438;50.922;6.704;2023-07-31T05:31:23;5.50;;;3.20;;
2860;SDS011;1438;50.922;6.704;2023-07-31T05:33:49;6.63;;;3.97;;
2860;SDS011;1438;50.922;6.704;2023-07-31T05:36:15;5.93;;;3.87;;
2860;SDS011;1438;50.922;6.704;2023-07-31T05:38:41;5.30;;;3.77;;
2860;SDS011;1438;50.922;6.704;2023-07-31T05:41:09;4.97;;;3.37;;
2860;SDS011;1438;50.922;6.704;2023-07-31T05:43:34;5.60;;;3.20;;
2860;SDS011;1438;50.922;6.704;2023-07-31T05:46:00;7.67;;;3.70;;
2860;SDS011;1438;50.922;6.704;2023-07-31T05:48:26;7.20;;;3.20;;
2860;SDS011;1438;50.922;6.704;2023-07-31T05:50:52;5.63;;;3.60;;
2860;SDS011;1438;50.922;6.704;2023-07-31T05:53:17;3.57;;;3.17;;
2860;SDS011;1438;50.922;6.704;2023-07-31T05:55:43;5.73;;;3.50;;
2860;SDS011;1438;50.922;6.704;2023-07-31T05:58:08;5.13;;;3.40;;
2860;SDS011;1438;50.922;6.704;2023-07-31T06:00:34;5.37;;;4.00;;
2860;SDS011;1438;50.922;6.704;2023-07-31T06:03:00;5.00;;;3.50;;
2860;SDS011;1438;50.922;6.704;2023-07-31T06:05:25;8.83;;;4.40;;
2860;SDS011;1438;50.922;6.704;2023-07-31T06:07:53;6.43;;;3.70;;
2860;SDS011;1438;50.922;6.704;2023-07-31T06:10:18;4.20;;;2.80;;
2860;SDS011;1438;50.922;6.704;2023-07-31T06:12:44;7.70;;;4.00;;
2860;SDS011;1438;50.922;6.704;2023-07-31T06:15:10;8.63;;;3.60;;
2860;SDS011;1438;50.922;6.704;2023-07-31T06:17:36;7.40;;;3.80;;
2860;SDS011;1438;50.922;6.704;2023-07-31T06:20:05;8.93;;;4.17;;
2860;SDS011;1438;50.922;6.704;2023-07-31T06:22:31;6.00;;;3.73;;
2860;SDS011;1438;50.922;6.704;2023-07-31T06:24:57;5.67;;;3.93;;
2860;SDS011;1438;50.922;6.704;2023-07-31T06:27:23;9.50;;;3.73;;
2860;SDS011;1438;50.922;6.704;2023-07-31T06:29:49;9.67;;;4.53;;
2860;SDS011;1438;50.922;6.704;2023-07-31T06:32:14;7.23;;;4.30;;
2860;SDS011;1438;50.922;6.704;2023-07-31T06:34:40;6.43;;;4.23;;
2860;SDS011;1438;50.922;6.704;2023-07-31T06:37:05;6.40;;;4.60;;
2860;SDS011;1438;50.922;6.704;2023-07-31T06:39:31;8.50;;;4.07;;
2860;SDS011;1438;50.922;6.704;2023-07-31T06:41:57;9.17;;;4.10;;
2860;SDS011;1438;50.922;6.704;2023-07-31T06:44:22;6.33;;;4.07;;
2860;SDS011;1438;50.922;6.704;2023-07-31T06:46:48;7.20;;;4.37;;
2860;SDS011;1438;50.922;6.704;2023-07-31T06:49:13;7.27;;;3.70;;
2860;SDS011;1438;50.922;6.704;2023-07-31T06:51:42;6.90;;;3.70;;
2860;SDS011;1438;50.922;6.704;2023-07-31T06:54:09;6.60;;;3.60;;
2860;SDS011;1438;50.922;6.704;2023-07-31T06:56:34;4.83;;;3.70;;
2860;SDS011;1438;50.922;6.704;2023-07-31T06:59:00;4.10;;;3.33;;
2860;SDS011;1438;50.922;6.704;2023-07-31T07:01:26;7.93;;;3.90;;
2860;SDS011;1438;50.922;6.704;2023-07-31T07:03:52;7.90;;;4.03;;
2860;SDS011;1438;50.922;6.704;2023-07-31T07:06:18;5.57;;;3.50;;
2860;SDS011;1438;50.922;6.704;2023-07-31T07:08:44;4.73;;;3.67;;
2860;SDS011;1438;50.922;6.704;2023-07-31T07:11:09;10.03;;;3.70;;
2860;SDS011;1438;50.922;6.704;2023-07-31T07:13:35;5.43;;;3.17;;
2860;SDS011;1438;50.922;6.704;2023-07-31T07:16:01;5.10;;;3.37;;
2860;SDS011;1438;50.922;6.704;2023-07-31T07:18:27;6.57;;;3.03;;
2860;SDS011;1438;50.922;6.704;2023-07-31T07:20:53;6.10;;;3.37;;
2860;SDS011;1438;50.922;6.704;2023-07-31T07:23:19;5.63;;;3.50;;
2860;SDS011;1438;50.922;6.704;2023-07-31T07:25:46;6.53;;;3.63;;
2860;SDS011;1438;50.922;6.704;2023-07-31T07:28:12;6.73;;;3.57;;
2860;SDS011;1438;50.922;6.704;2023-07-31T07:30:38;8.90;;;3.67;;
2860;SDS011;1438;50.922;6.704;2023-07-31T07:33:04;5.60;;;3.00;;
2860;SDS011;1438;50.922;6.704;2023-07-31T07:35:30;6.03;;;3.00;;
2860;SDS011;1438;50.922;6.704;2023-07-31T07:37:58;4.07;;;2.63;;
2860;SDS011;1438;50.922;6.704;2023-07-31T07:40:24;5.37;;;3.20;;
2860;SDS011;1438;50.922;6.704;2023-07-31T07:42:50;7.70;;;3.70;;
2860;SDS011;1438;50.922;6.704;2023-07-31T07:45:15;5.23;;;3.50;;
2860;SDS011;1438;50.922;6.704;2023-07-31T07:47:41;10.27;;;3.20;;
2860;SDS011;1438;50.922;6.704;2023-07-31T07:50:07;6.57;;;3.20;;
2860;SDS011;1438;50.922;6.704;2023-07-31T07:52:33;4.63;;;2.63;;
2860;SDS011;1438;50.922;6.704;2023-07-31T07:54:59;5.50;;;2.90;;
2860;SDS011;1438;50.922;6.704;2023-07-31T07:57:25;10.57;;;3.33;;
2860;SDS011;1438;50.922;6.704;2023-07-31T07:59:51;6.40;;;3.67;;
2860;SDS011;1438;50.922;6.704;2023-07-31T08:02:17;3.60;;;3.00;;
2860;SDS011;1438;50.922;6.704;2023-07-31T08:04:42;6.67;;;3.70;;
2860;SDS011;1438;50.922;6.704;2023-07-31T08:07:16;5.87;;;3.27;;
2860;SDS011;1438;50.922;6.704;2023-07-31T08:09:41;6.27;;;3.63;;
2860;SDS011;1438;50.922;6.704;2023-07-31T08:12:07;9.43;;;3.50;;
2860;SDS011;1438;50.922;6.704;2023-07-31T08:14:33;6.60;;;3.50;;
2860;SDS011;1438;50.922;6.704;2023-07-31T08:17:01;5.13;;;3.60;;
2860;SDS011;1438;50.922;6.704;2023-07-31T08:19:27;7.37;;;3.10;;
2860;SDS011;1438;50.922;6.704;2023-07-31T08:21:55;9.13;;;3.60;;
2860;SDS011;1438;50.922;6.704;2023-07-31T08:24:21;7.77;;;3.63;;
2860;SDS011;1438;50.922;6.704;2023-07-31T08:26:49;6.13;;;2.90;;
2860;SDS011;1438;50.922;6.704;2023-07-31T08:29:14;6.23;;;3.27;;
2860;SDS011;1438;50.922;6.704;2023-07-31T08:31:40;4.17;;;3.00;;
2860;SDS011;1438;50.922;6.704;2023-07-31T08:34:06;3.10;;;2.50;;
2860;SDS011;1438;50.922;6.704;2023-07-31T08:36:31;3.90;;;3.10;;
2860;SDS011;1438;50.922;6.704;2023-07-31T08:38:57;4.00;;;2.60;;
2860;SDS011;1438;50.922;6.704;2023-07-31T08:41:25;4.70;;;3.47;;
2860;SDS011;1438;50.922;6.704;2023-07-31T08:43:52;4.43;;;2.93;;
2860;SDS011;1438;50.922;6.704;2023-07-31T08:46:18;2.80;;;2.40;;
2860;SDS011;1438;50.922;6.704;2023-07-31T08:48:46;4.20;;;2.80;;
2860;SDS011;1438;50.922;6.704;2023-07-31T08:51:13;4.60;;;3.00;;
2860;SDS011;1438;50.922;6.704;2023-07-31T08:53:40;6.50;;;2.70;;
2860;SDS011;1438;50.922;6.704;2023-07-31T08:56:06;4.60;;;2.57;;
2860;SDS011;1438;50.922;6.704;2023-07-31T08:58:32;6.20;;;2.33;;
2860;SDS011;1438;50.922;6.704;2023-07-31T09:01:00;2.33;;;2.07;;
2860;SDS011;1438;50.922;6.704;2023-07-31T09:03:28;5.50;;;2.60;;
2860;SDS011;1438;50.922;6.704;2023-07-31T09:05:58;3.47;;;2.30;;
2860;SDS011;1438;50.922;6.704;2023-07-31T09:08:24;2.40;;;2.20;;
2860;SDS011;1438;50.922;6.704;2023-07-31T09:10:54;2.70;;;1.90;;
2860;SDS011;1438;50.922;6.704;2023-07-31T09:13:30;5.23;;;2.80;;
2860;SDS011;1438;50.922;6.704;2023-07-31T09:15:57;5.33;;;2.83;;
2860;SDS011;1438;50.922;6.704;2023-07-31T09:18:23;3.63;;;2.80;;
2860;SDS011;1438;50.922;6.704;2023-07-31T09:21:01;3.13;;;2.13;;
2860;SDS011;1438;50.922;6.704;2023-07-31T09:23:39;4.17;;;2.87;;
2860;SDS011;1438;50.922;6.704;2023-07-31T09:26:07;5.27;;;3.27;;
2860;SDS011;1438;50.922;6.704;2023-07-31T09:28:32;4.13;;;2.53;;
2860;SDS011;1438;50.922;6.704;2023-07-31T09:30:58;3.20;;;2.53;;
2860;SDS011;1438;50.922;6.704;2023-07-31T09:33:23;4.80;;;2.43;;
2860;SDS011;1438;50.922;6.704;2023-07-31T09:35:49;4.30;;;2.67;;
2860;SDS011;1438;50.922;6.704;2023-07-31T09:38:15;6.90;;;3.77;;
2860;SDS011;1438;50.922;6.704;2023-07-31T09:40:42;4.60;;;3.07;;
2860;SDS011;1438;50.922;6.704;2023-07-31T09:43:10;3.60;;;2.50;;
2860;SDS011;1438;50.922;6.704;2023-07-31T09:45:37;4.77;;;2.70;;
2860;SDS011;1438;50.922;6.704;2023-07-31T09:48:08;5.00;;;2.43;;
2860;SDS011;1438;50.922;6.704;2023-07-31T09:50:37;3.60;;;2.13;;
2860;SDS011;1438;50.922;6.704;2023-07-31T09:53:04;4.10;;;2.27;;
2860;SDS011;1438;50.922;6.704;2023-07-31T09:55:30;8.20;;;2.73;;
2860;SDS011;1438;50.922;6.704;2023-07-31T09:57:59;4.60;;;2.30;;
2860;SDS011;1438;50.922;6.704;2023-07-31T10:00:30;9.13;;;2.50;;
2860;SDS011;1438;50.922;6.704;2023-07-31T10:02:58;7.10;;;2.20;;
2860;SDS011;1438;50.922;6.704;2023-07-31T10:05:27;3.30;;;2.40;;
2860;SDS011;1438;50.922;6.704;2023-07-31T10:07:58;7.13;;;2.33;;
2860;SDS011;1438;50.922;6.704;2023-07-31T10:10:25;4.33;;;2.57;;
2860;SDS011;1438;50.922;6.704;2023-07-31T10:12:52;3.60;;;1.87;;
2860;SDS011;1438;50.922;6.704;2023-07-31T10:15:19;5.20;;;2.20;;
2860;SDS011;1438;50.922;6.704;2023-07-31T10:17:48;2.87;;;2.00;;
2860;SDS011;1438;50.922;6.704;2023-07-31T10:20:15;3.07;;;2.00;;
2860;SDS011;1438;50.922;6.704;2023-07-31T10:22:41;6.20;;;2.50;;
2860;SDS011;1438;50.922;6.704;2023-07-31T10:25:08;3.83;;;2.67;;
2860;SDS011;1438;50.922;6.704;2023-07-31T10:27:38;6.73;;;1.93;;
2860;SDS011;1438;50.922;6.704;2023-07-31T10:30:04;5.03;;;2.23;;
2860;SDS011;1438;50.922;6.704;2023-07-31T10:32:33;7.70;;;2.17;;
2860;SDS011;1438;50.922;6.704;2023-07-31T10:35:00;3.23;;;2.00;;
2860;SDS011;1438;50.922;6.704;2023-07-31T10:37:29;4.60;;;1.93;;
2860;SDS011;1438;50.922;6.704;2023-07-31T10:40:03;2.00;;;1.30;;
2860;SDS011;1438;50.922;6.704;2023-07-31T10:42:36;4.90;;;2.60;;
2860;SDS011;1438;50.922;6.704;2023-07-31T10:45:05;3.10;;;1.80;;
2860;SDS011;1438;50.922;6.704;2023-07-31T10:47:57;2.30;;;1.60;;
2860;SDS011;1438;50.922;6.704;2023-07-31T10:50:28;2.50;;;1.60;;
2860;SDS011;1438;50.922;6.704;2023-07-31T10:52:55;2.90;;;1.53;;
2860;SDS011;1438;50.922;6.704;2023-07-31T10:55:41;4.50;;;1.87;;
2860;SDS011;1438;50.922;6.704;2023-07-31T10:58:12;3.93;;;1.40;;
2860;SDS011;1438;50.922;6.704;2023-07-31T11:00:42;1.37;;;1.20;;
2860;SDS011;1438;50.922;6.704;2023-07-31T11:03:10;1.13;;;0.90;;
2860;SDS011;1438;50.922;6.704;2023-07-31T11:05:42;2.10;;;1.00;;
2860;SDS011;1438;50.922;6.704;2023-07-31T11:08:19;1.20;;;0.90;;
2860;SDS011;1438;50.922;6.704;2023-07-31T11:10:49;1.00;;;0.90;;
2860;SDS011;1438;50.922;6.704;2023-07-31T11:15:55;1.77;;;0.90;;
2860;SDS011;1438;50.922;6.704;2023-07-31T11:18:21;2.90;;;1.00;;
2860;SDS011;1438;50.922;6.704;2023-07-31T11:20:46;1.00;;;0.90;;
2860;SDS011;1438;50.922;6.704;2023-07-31T11:23:12;2.13;;;0.80;;
2860;SDS011;1438;50.922;6.704;2023-07-31T11:25:40;1.40;;;0.73;;
2860;SDS011;1438;50.922;6.704;2023-07-31T11:28:08;1.20;;;0.80;;
2860;SDS011;1438;50.922;6.704;2023-07-31T11:30:35;1.27;;;0.73;;
2860;SDS011;1438;50.922;6.704;2023-07-31T11:33:02;2.10;;;0.90;;
2860;SDS011;1438;50.922;6.704;2023-07-31T11:35:35;1.10;;;0.97;;
2860;SDS011;1438;50.922;6.704;2023-07-31T11:38:06;1.10;;;0.70;;
2860;SDS011;1438;50.922;6.704;2023-07-31T11:40:40;1.10;;;0.90;;
2860;SDS011;1438;50.922;6.704;2023-07-31T11:43:06;1.67;;;0.80;;
2860;SDS011;1438;50.922;6.704;2023-07-31T11:45:32;1.10;;;0.90;;
2860;SDS011;1438;50.922;6.704;2023-07-31T11:48:00;1.13;;;0.90;;
2860;SDS011;1438;50.922;6.704;2023-07-31T11:50:26;0.97;;;0.83;;
2860;SDS011;1438;50.922;6.704;2023-07-31T11:52:55;1.40;;;1.30;;
2860;SDS011;1438;50.922;6.704;2023-07-31T11:55:24;1.00;;;0.90;;
2860;SDS011;1438;50.922;6.704;2023-07-31T11:57:51;1.47;;;1.20;;
2860;SDS011;1438;50.922;6.704;2023-07-31T12:00:18;1.70;;;1.47;;
2860;SDS011;1438;50.922;6.704;2023-07-31T12:02:44;4.63;;;1.33;;
2860;SDS011;1438;50.922;6.704;2023-07-31T12:05:10;2.87;;;1.30;;
2860;SDS011;1438;50.922;6.704;2023-07-31T12:07:43;4.07;;;1.50;;
2860;SDS011;1438;50.922;6.704;2023-07-31T12:10:22;2.23;;;1.30;;
2860;SDS011;1438;50.922;6.704;2023-07-31T12:12:56;2.00;;;1.50;;
2860;SDS011;1438;50.922;6.704;2023-07-31T12:15:28;2.47;;;1.30;;
2860;SDS011;1438;50.922;6.704;2023-07-31T12:18:05;2.27;;;1.70;;
2860;SDS011;1438;50.922;6.704;2023-07-31T12:20:32;3.93;;;2.00;;
2860;SDS011;1438;50.922;6.704;2023-07-31T12:22:58;2.40;;;1.97;;
2860;SDS011;1438;50.922;6.704;2023-07-31T12:25:28;1.93;;;1.50;;
2860;SDS011;1438;50.922;6.704;2023-07-31T12:27:55;3.23;;;1.83;;
2860;SDS011;1438;50.922;6.704;2023-07-31T12:30:33;2.23;;;1.97;;
2860;SDS011;1438;50.922;6.704;2023-07-31T12:33:03;2.70;;;2.13;;
2860;SDS011;1438;50.922;6.704;2023-07-31T12:35:36;1.90;;;1.70;;
2860;SDS011;1438;50.922;6.704;2023-07-31T12:38:03;1.97;;;1.73;;
2860;SDS011;1438;50.922;6.704;2023-07-31T12:40:29;2.07;;;1.87;;
2860;SDS011;1438;50.922;6.704;2023-07-31T12:42:55;2.27;;;2.07;;
2860;SDS011;1438;50.922;6.704;2023-07-31T12:45:20;3.00;;;1.87;;
2860;SDS011;1438;50.922;6.704;2023-07-31T12:47:46;2.53;;;2.10;;
2860;SDS011;1438;50.922;6.704;2023-07-31T12:50:12;2.80;;;2.23;;
2860;SDS011;1438;50.922;6.704;2023-07-31T12:52:37;2.40;;;1.70;;
2860;SDS011;1438;50.922;6.704;2023-07-31T12:55:03;2.87;;;2.67;;
2860;SDS011;1438;50.922;6.704;2023-07-31T12:57:29;3.37;;;2.03;;
2860;SDS011;1438;50.922;6.704;2023-07-31T12:59:55;2.70;;;2.33;;
2860;SDS011;1438;50.922;6.704;2023-07-31T13:02:21;6.03;;;1.80;;
2860;SDS011;1438;50.922;6.704;2023-07-31T13:04:46;3.00;;;2.03;;
2860;SDS011;1438;50.922;6.704;2023-07-31T13:07:12;2.53;;;1.87;;
2860;SDS011;1438;50.922;6.704;2023-07-31T13:09:37;2.47;;;2.00;;
2860;SDS011;1438;50.922;6.704;2023-07-31T13:12:03;3.40;;;2.40;;
2860;SDS011;1438;50.922;6.704;2023-07-31T13:14:29;2.67;;;2.43;;
2860;SDS011;1438;50.922;6.704;2023-07-31T13:16:55;2.20;;;2.00;;
2860;SDS011;1438;50.922;6.704;2023-07-31T13:19:20;2.60;;;2.40;;
2860;SDS011;1438;50.922;6.704;2023-07-31T13:21:46;3.23;;;1.80;;
2860;SDS011;1438;50.922;6.704;2023-07-31T13:24:11;3.33;;;2.30;;
2860;SDS011;1438;50.922;6.704;2023-07-31T13:26:37;2.10;;;1.77;;
2860;SDS011;1438;50.922;6.704;2023-07-31T13:29:02;2.00;;;1.60;;
2860;SDS011;1438;50.922;6.704;2023-07-31T13:31:28;2.23;;;1.90;;
2860;SDS011;1438;50.922;6.704;2023-07-31T13:33:54;4.33;;;2.00;;
2860;SDS011;1438;50.922;6.704;2023-07-31T13:36:19;2.83;;;2.30;;
2860;SDS011;1438;50.922;6.704;2023-07-31T13:38:45;2.77;;;1.80;;
2860;SDS011;1438;50.922;6.704;2023-07-31T13:41:10;1.47;;;1.33;;
2860;SDS011;1438;50.922;6.704;2023-07-31T13:43:36;1.97;;;1.70;;
2860;SDS011;1438;50.922;6.704;2023-07-31T13:46:01;2.13;;;1.93;;
2860;SDS011;1438;50.922;6.704;2023-07-31T13:48:31;1.90;;;1.70;;
2860;SDS011;1438;50.922;6.704;2023-07-31T13:50:59;2.10;;;1.70;;
2860;SDS011;1438;50.922;6.704;2023-07-31T13:53:24;3.50;;;2.63;;
2860;SDS011;1438;50.922;6.704;2023-07-31T13:55:50;2.60;;;2.40;;
2860;SDS011;1438;50.922;6.704;2023-07-31T13:58:16;2.90;;;2.07;;
2860;SDS011;1438;50.922;6.704;2023-07-31T14:00:42;3.00;;;2.20;;
2860;SDS011;1438;50.922;6.704;2023-07-31T14:03:07;3.27;;;2.50;;
2860;SDS011;1438;50.922;6.704;2023-07-31T14:05:33;2.57;;;2.30;;
2860;SDS011;1438;50.922;6.704;2023-07-31T14:07:59;3.30;;;2.63;;
2860;SDS011;1438;50.922;6.704;2023-07-31T14:10:24;2.60;;;2.10;;
2860;SDS011;1438;50.922;6.704;2023-07-31T14:12:50;2.53;;;2.07;;
2860;SDS011;1438;50.922;6.704;2023-07-31T14:15:16;3.97;;;2.40;;
2860;SDS011;1438;50.922;6.704;2023-07-31T14:17:41;2.20;;;2.00;;
2860;SDS011;1438;50.922;6.704;2023-07-31T14:20:07;2.30;;;2.00;;
2860;SDS011;1438;50.922;6.704;2023-07-31T14:22:33;6.60;;;2.73;;
2860;SDS011;1438;50.922;6.704;2023-07-31T14:24:59;3.30;;;2.00;;
2860;SDS011;1438;50.922;6.704;2023-07-31T14:27:25;3.87;;;2.37;;
2860;SDS011;1438;50.922;6.704;2023-07-31T14:29:51;2.80;;;2.60;;
2860;SDS011;1438;50.922;6.704;2023-07-31T14:32:16;5.37;;;3.90;;
2860;SDS011;1438;50.922;6.704;2023-07-31T14:34:42;5.63;;;3.40;;
2860;SDS011;1438;50.922;6.704;2023-07-31T14:37:07;6.93;;;3.67;;
2860;SDS011;1438;50.922;6.704;2023-07-31T14:39:33;3.97;;;3.30;;
2860;SDS011;1438;50.922;6.704;2023-07-31T14:41:59;6.97;;;4.00;;
2860;SDS011;1438;50.922;6.704;2023-07-31T14:44:24;4.17;;;3.50;;
2860;SDS011;1438;50.922;6.704;2023-07-31T14:46:50;3.27;;;2.97;;
2860;SDS011;1438;50.922;6.704;2023-07-31T14:49:15;5.10;;;3.50;;
2860;SDS011;1438;50.922;6.704;2023-07-31T14:51:41;4.60;;;3.50;;
2860;SDS011;1438;50.922;6.704;2023-07-31T14:54:06;4.87;;;3.70;;
2860;SDS011;1438;50.922;6.704;2023-07-31T14:56:32;4.37;;;3.60;;
2860;SDS011;1438;50.922;6.704;2023-07-31T14:58:57;3.43;;;2.73;;
2860;SDS011;1438;50.922;6.704;2023-07-31T15:01:23;4.77;;;3.30;;
2860;SDS011;1438;50.922;6.704;2023-07-31T15:03:49;3.70;;;3.17;;
2860;SDS011;1438;50.922;6.704;2023-07-31T15:06:14;4.20;;;3.30;;
2860;SDS011;1438;50.922;6.704;2023-07-31T15:08:40;5.60;;;2.93;;
2860;SDS011;1438;50.922;6.704;2023-07-31T15:11:07;4.63;;;3.53;;
2860;SDS011;1438;50.922;6.704;2023-07-31T15:13:32;4.90;;;3.40;;
2860;SDS011;1438;50.922;6.704;2023-07-31T15:15:58;3.77;;;3.37;;
2860;SDS011;1438;50.922;6.704;2023-07-31T15:18:24;3.30;;;3.00;;
2860;SDS011;1438;50.922;6.704;2023-07-31T15:20:50;4.00;;;3.60;;
2860;SDS011;1438;50.922;6.704;2023-07-31T15:23:15;5.43;;;3.20;;